sensor_id;sensor_type;location;lat;lon;timestamp;P1;durP1;ratioP1;P2;durP2;ratioP2
23236;SDS011;11787;52.018;8.570;2023-02-28T00:03:49;12.20;;;6.07;;
23236;SDS011;11787;52.018;8.570;2023-02-28T00:06:15;10.23;;;5.80;;
23236;SDS011;11787;52.018;8.570;2023-02-28T00:08:41;10.10;;;5.97;;
23236;SDS011;11787;52.018;8.570;2023-02-28T00:11:07;9.88;;;5.90;;
23236;SDS011;11787;52.018;8.570;2023-02-28T00:13:36;11.00;;;6.72;;
23236;SDS011;11787;52.018;8.570;2023-02-28T00:16:04;15.25;;;6.60;;
23236;SDS011;11787;52.018;8.570;2023-02-28T00:18:31;8.30;;;5.45;;
23236;SDS011;11787;52.018;8.570;2023-02-28T00:20:58;9.95;;;6.03;;
23236;SDS011;11787;52.018;8.570;2023-02-28T00:23:24;10.27;;;5.95;;
23236;SDS011;11787;52.018;8.570;2023-02-28T00:25:50;9.05;;;5.70;;
23236;SDS011;11787;52.018;8.570;2023-02-28T00:28:16;9.98;;;6.00;;
23236;SDS011;11787;52.018;8.570;2023-02-28T00:30:42;8.45;;;4.80;;
23236;SDS011;11787;52.018;8.570;2023-02-28T00:33:08;9.07;;;5.50;;
23236;SDS011;11787;52.018;8.570;2023-02-28T00:35:34;9.32;;;5.50;;
23236;SDS011;11787;52.018;8.570;2023-02-28T00:38:00;9.68;;;5.25;;
23236;SDS011;11787;52.018;8.570;2023-02-28T00:40:25;6.85;;;4.00;;
23236;SDS011;11787;52.018;8.570;2023-02-28T00:42:51;6.93;;;3.83;;
23236;SDS011;11787;52.018;8.570;2023-02-28T00:45:17;7.57;;;4.18;;
23236;SDS011;11787;52.018;8.570;2023-02-28T00:47:42;8.32;;;3.65;;
23236;SDS011;11787;52.018;8.570;2023-02-28T00:50:08;7.50;;;4.38;;
23236;SDS011;11787;52.018;8.570;2023-02-28T00:52:34;9.02;;;4.60;;
23236;SDS011;11787;52.018;8.570;2023-02-28T00:55:00;9.93;;;4.60;;
23236;SDS011;11787;52.018;8.570;2023-02-28T00:57:25;8.27;;;4.63;;
23236;SDS011;11787;52.018;8.570;2023-02-28T00:59:51;10.18;;;5.05;;
23236;SDS011;11787;52.018;8.570;2023-02-28T01:02:19;9.93;;;4.32;;
23236;SDS011;11787;52.018;8.570;2023-02-28T01:04:45;6.32;;;4.22;;
23236;SDS011;11787;52.018;8.570;2023-02-28T01:07:11;8.10;;;4.22;;
23236;SDS011;11787;52.018;8.570;2023-02-28T01:09:37;7.82;;;4.38;;
23236;SDS011;11787;52.018;8.570;2023-02-28T01:12:02;7.07;;;4.50;;
23236;SDS011;11787;52.018;8.570;2023-02-28T01:14:28;7.03;;;4.25;;
23236;SDS011;11787;52.018;8.570;2023-02-28T01:16:54;10.35;;;5.05;;
23236;SDS011;11787;52.018;8.570;2023-02-28T01:19:19;10.25;;;4.57;;
23236;SDS011;11787;52.018;8.570;2023-02-28T01:21:45;10.10;;;4.32;;
23236;SDS011;11787;52.018;8.570;2023-02-28T01:24:10;9.32;;;4.63;;
23236;SDS011;11787;52.018;8.570;2023-02-28T01:26:36;8.85;;;4.70;;
23236;SDS011;11787;52.018;8.570;2023-02-28T01:29:02;8.35;;;4.25;;
23236;SDS011;11787;52.018;8.570;2023-02-28T01:31:28;8.90;;;4.47;;
23236;SDS011;11787;52.018;8.570;2023-02-28T01:33:53;7.93;;;4.57;;
23236;SDS011;11787;52.018;8.570;2023-02-28T01:36:20;7.70;;;4.53;;
23236;SDS011;11787;52.018;8.570;2023-02-28T01:38:47;11.43;;;4.80;;
23236;SDS011;11787;52.018;8.570;2023-02-28T01:41:18;8.65;;;4.25;;
23236;SDS011;11787;52.018;8.570;2023-02-28T01:46:14;6.60;;;3.13;;
23236;SDS011;11787;52.018;8.570;2023-02-28T01:48:40;8.13;;;3.42;;
23236;SDS011;11787;52.018;8.570;2023-02-28T01:51:13;7.05;;;3.58;;
23236;SDS011;11787;52.018;8.570;2023-02-28T01:53:45;8.13;;;3.88;;
23236;SDS011;11787;52.018;8.570;2023-02-28T01:56:16;6.63;;;3.28;;
23236;SDS011;11787;52.018;8.570;2023-02-28T01:58:46;4.97;;;3.30;;
23236;SDS011;11787;52.018;8.570;2023-02-28T02:01:16;7.70;;;3.88;;
23236;SDS011;11787;52.018;8.570;2023-02-28T02:03:57;9.95;;;3.88;;
23236;SDS011;11787;52.018;8.570;2023-02-28T02:06:26;8.52;;;3.38;;
23236;SDS011;11787;52.018;8.570;2023-02-28T02:08:55;6.38;;;3.45;;
23236;SDS011;11787;52.018;8.570;2023-02-28T02:11:21;4.65;;;2.88;;
23236;SDS011;11787;52.018;8.570;2023-02-28T02:27:25;5.97;;;3.38;;
23236;SDS011;11787;52.018;8.570;2023-02-28T02:30:27;5.68;;;2.88;;
23236;SDS011;11787;52.018;8.570;2023-02-28T02:33:24;6.03;;;2.95;;
23236;SDS011;11787;52.018;8.570;2023-02-28T02:36:12;6.30;;;2.85;;
23236;SDS011;11787;52.018;8.570;2023-02-28T02:38:49;6.18;;;2.72;;
23236;SDS011;11787;52.018;8.570;2023-02-28T02:41:33;5.50;;;2.78;;
23236;SDS011;11787;52.018;8.570;2023-02-28T02:44:27;6.55;;;2.40;;
23236;SDS011;11787;52.018;8.570;2023-02-28T02:47:16;3.85;;;2.50;;
23236;SDS011;11787;52.018;8.570;2023-02-28T02:49:54;4.90;;;2.60;;
23236;SDS011;11787;52.018;8.570;2023-02-28T02:52:24;7.47;;;3.08;;
23236;SDS011;11787;52.018;8.570;2023-02-28T02:54:57;3.33;;;2.50;;
23236;SDS011;11787;52.018;8.570;2023-02-28T02:57:36;4.60;;;2.80;;
23236;SDS011;11787;52.018;8.570;2023-02-28T03:00:10;5.70;;;2.78;;
23236;SDS011;11787;52.018;8.570;2023-02-28T03:02:37;5.13;;;2.35;;
23236;SDS011;11787;52.018;8.570;2023-02-28T03:05:06;4.05;;;2.78;;
23236;SDS011;11787;52.018;8.570;2023-02-28T03:07:38;4.70;;;3.08;;
23236;SDS011;11787;52.018;8.570;2023-02-28T03:10:25;4.50;;;3.00;;
23236;SDS011;11787;52.018;8.570;2023-02-28T03:13:06;4.53;;;2.85;;
23236;SDS011;11787;52.018;8.570;2023-02-28T03:23:59;4.57;;;2.67;;
23236;SDS011;11787;52.018;8.570;2023-02-28T03:26:40;5.57;;;3.08;;
23236;SDS011;11787;52.018;8.570;2023-02-28T03:31:47;4.78;;;2.95;;
23236;SDS011;11787;52.018;8.570;2023-02-28T03:34:38;4.57;;;3.03;;
23236;SDS011;11787;52.018;8.570;2023-02-28T03:37:16;4.55;;;3.60;;
23236;SDS011;11787;52.018;8.570;2023-02-28T03:39:46;7.82;;;3.33;;
23236;SDS011;11787;52.018;8.570;2023-02-28T03:42:19;5.97;;;3.10;;
23236;SDS011;11787;52.018;8.570;2023-02-28T03:44:49;6.78;;;3.58;;
23236;SDS011;11787;52.018;8.570;2023-02-28T03:47:23;6.28;;;3.97;;
23236;SDS011;11787;52.018;8.570;2023-02-28T03:49:54;5.85;;;3.50;;
23236;SDS011;11787;52.018;8.570;2023-02-28T03:52:30;5.25;;;3.42;;
23236;SDS011;11787;52.018;8.570;2023-02-28T03:55:00;7.05;;;4.10;;
23236;SDS011;11787;52.018;8.570;2023-02-28T04:00:14;7.97;;;3.53;;
23236;SDS011;11787;52.018;8.570;2023-02-28T04:02:44;4.80;;;3.30;;
23236;SDS011;11787;52.018;8.570;2023-02-28T04:05:10;8.65;;;4.63;;
23236;SDS011;11787;52.018;8.570;2023-02-28T04:07:36;6.30;;;3.80;;
23236;SDS011;11787;52.018;8.570;2023-02-28T04:10:02;6.43;;;3.85;;
23236;SDS011;11787;52.018;8.570;2023-02-28T04:12:29;6.15;;;3.97;;
23236;SDS011;11787;52.018;8.570;2023-02-28T04:14:55;6.72;;;4.25;;
23236;SDS011;11787;52.018;8.570;2023-02-28T04:17:20;5.38;;;3.80;;
23236;SDS011;11787;52.018;8.570;2023-02-28T04:19:46;6.35;;;3.78;;
23236;SDS011;11787;52.018;8.570;2023-02-28T04:22:11;6.35;;;4.03;;
23236;SDS011;11787;52.018;8.570;2023-02-28T04:24:38;6.43;;;3.70;;
23236;SDS011;11787;52.018;8.570;2023-02-28T04:27:06;5.68;;;4.00;;
23236;SDS011;11787;52.018;8.570;2023-02-28T04:29:33;5.80;;;3.85;;
23236;SDS011;11787;52.018;8.570;2023-02-28T04:31:59;6.47;;;3.97;;
23236;SDS011;11787;52.018;8.570;2023-02-28T04:34:26;8.13;;;3.75;;
23236;SDS011;11787;52.018;8.570;2023-02-28T04:36:53;6.78;;;4.38;;
23236;SDS011;11787;52.018;8.570;2023-02-28T04:39:20;6.18;;;4.03;;
23236;SDS011;11787;52.018;8.570;2023-02-28T04:41:46;5.88;;;3.90;;
23236;SDS011;11787;52.018;8.570;2023-02-28T04:44:13;5.47;;;3.42;;
23236;SDS011;11787;52.018;8.570;2023-02-28T04:46:40;6.70;;;3.63;;
23236;SDS011;11787;52.018;8.570;2023-02-28T04:49:06;6.05;;;3.92;;
23236;SDS011;11787;52.018;8.570;2023-02-28T04:51:32;7.68;;;3.92;;
23236;SDS011;11787;52.018;8.570;2023-02-28T04:53:58;7.75;;;3.90;;
23236;SDS011;11787;52.018;8.570;2023-02-28T04:56:24;6.60;;;3.92;;
23236;SDS011;11787;52.018;8.570;2023-02-28T04:58:49;6.55;;;3.88;;
23236;SDS011;11787;52.018;8.570;2023-02-28T05:03:57;6.80;;;4.07;;
23236;SDS011;11787;52.018;8.570;2023-02-28T05:06:25;7.03;;;4.03;;
23236;SDS011;11787;52.018;8.570;2023-02-28T05:08:52;6.97;;;3.80;;
23236;SDS011;11787;52.018;8.570;2023-02-28T05:11:19;10.73;;;4.80;;
23236;SDS011;11787;52.018;8.570;2023-02-28T05:13:51;6.75;;;4.20;;
23236;SDS011;11787;52.018;8.570;2023-02-28T05:16:17;7.32;;;3.92;;
23236;SDS011;11787;52.018;8.570;2023-02-28T05:18:43;9.23;;;4.88;;
23236;SDS011;11787;52.018;8.570;2023-02-28T05:22:10;9.40;;;4.78;;
23236;SDS011;11787;52.018;8.570;2023-02-28T05:24:14;7.88;;;4.55;;
23236;SDS011;11787;52.018;8.570;2023-02-28T05:26:40;8.38;;;4.15;;
23236;SDS011;11787;52.018;8.570;2023-02-28T05:29:07;7.18;;;4.10;;
23236;SDS011;11787;52.018;8.570;2023-02-28T05:31:33;7.95;;;4.40;;
23236;SDS011;11787;52.018;8.570;2023-02-28T05:33:58;9.82;;;4.00;;
23236;SDS011;11787;52.018;8.570;2023-02-28T05:36:24;7.15;;;4.82;;
23236;SDS011;11787;52.018;8.570;2023-02-28T05:38:50;8.77;;;4.65;;
23236;SDS011;11787;52.018;8.570;2023-02-28T05:41:17;7.97;;;5.22;;
23236;SDS011;11787;52.018;8.570;2023-02-28T05:43:44;14.65;;;7.65;;
23236;SDS011;11787;52.018;8.570;2023-02-28T05:46:11;11.63;;;7.25;;
23236;SDS011;11787;52.018;8.570;2023-02-28T05:48:37;9.52;;;5.50;;
23236;SDS011;11787;52.018;8.570;2023-02-28T05:51:04;9.07;;;4.93;;
23236;SDS011;11787;52.018;8.570;2023-02-28T05:53:32;7.40;;;4.70;;
23236;SDS011;11787;52.018;8.570;2023-02-28T05:55:58;8.77;;;5.45;;
23236;SDS011;11787;52.018;8.570;2023-02-28T05:58:24;10.60;;;5.80;;
23236;SDS011;11787;52.018;8.570;2023-02-28T06:00:55;9.68;;;4.80;;
23236;SDS011;11787;52.018;8.570;2023-02-28T06:03:25;10.90;;;5.32;;
23236;SDS011;11787;52.018;8.570;2023-02-28T06:05:51;6.63;;;4.28;;
23236;SDS011;11787;52.018;8.570;2023-02-28T06:08:16;6.90;;;5.00;;
23236;SDS011;11787;52.018;8.570;2023-02-28T06:10:43;8.30;;;5.30;;
23236;SDS011;11787;52.018;8.570;2023-02-28T06:13:09;8.93;;;5.72;;
23236;SDS011;11787;52.018;8.570;2023-02-28T06:15:36;11.88;;;5.43;;
23236;SDS011;11787;52.018;8.570;2023-02-28T06:18:02;8.60;;;5.38;;
23236;SDS011;11787;52.018;8.570;2023-02-28T06:20:28;10.63;;;6.57;;
23236;SDS011;11787;52.018;8.570;2023-02-28T06:22:55;6.40;;;4.75;;
23236;SDS011;11787;52.018;8.570;2023-02-28T06:25:23;8.50;;;5.20;;
23236;SDS011;11787;52.018;8.570;2023-02-28T06:27:49;8.95;;;4.68;;
23236;SDS011;11787;52.018;8.570;2023-02-28T06:30:15;8.10;;;4.45;;
23236;SDS011;11787;52.018;8.570;2023-02-28T06:32:40;7.07;;;4.72;;
23236;SDS011;11787;52.018;8.570;2023-02-28T06:35:06;8.70;;;5.20;;
23236;SDS011;11787;52.018;8.570;2023-02-28T06:37:32;6.55;;;4.47;;
23236;SDS011;11787;52.018;8.570;2023-02-28T06:39:58;5.75;;;3.50;;
23236;SDS011;11787;52.018;8.570;2023-02-28T06:42:24;5.90;;;3.70;;
23236;SDS011;11787;52.018;8.570;2023-02-28T06:44:53;9.05;;;4.03;;
23236;SDS011;11787;52.018;8.570;2023-02-28T06:47:22;6.25;;;4.10;;
23236;SDS011;11787;52.018;8.570;2023-02-28T06:49:48;8.75;;;4.88;;
23236;SDS011;11787;52.018;8.570;2023-02-28T06:52:14;7.55;;;3.97;;
23236;SDS011;11787;52.018;8.570;2023-02-28T06:54:40;8.55;;;4.13;;
23236;SDS011;11787;52.018;8.570;2023-02-28T06:57:06;8.70;;;4.80;;
23236;SDS011;11787;52.018;8.570;2023-02-28T06:59:31;12.38;;;5.03;;
23236;SDS011;11787;52.018;8.570;2023-02-28T07:01:57;8.27;;;4.40;;
23236;SDS011;11787;52.018;8.570;2023-02-28T07:04:23;9.07;;;4.43;;
23236;SDS011;11787;52.018;8.570;2023-02-28T07:06:49;8.25;;;5.88;;
23236;SDS011;11787;52.018;8.570;2023-02-28T07:09:14;9.90;;;4.70;;
23236;SDS011;11787;52.018;8.570;2023-02-28T07:11:40;7.78;;;4.63;;
23236;SDS011;11787;52.018;8.570;2023-02-28T07:14:07;11.38;;;5.03;;
23236;SDS011;11787;52.018;8.570;2023-02-28T07:16:33;6.72;;;4.97;;
23236;SDS011;11787;52.018;8.570;2023-02-28T07:19:00;8.65;;;4.68;;
23236;SDS011;11787;52.018;8.570;2023-02-28T07:21:25;12.90;;;4.70;;
23236;SDS011;11787;52.018;8.570;2023-02-28T07:23:51;8.32;;;4.68;;
23236;SDS011;11787;52.018;8.570;2023-02-28T07:26:18;5.97;;;4.07;;
23236;SDS011;11787;52.018;8.570;2023-02-28T07:28:45;8.43;;;5.30;;
23236;SDS011;11787;52.018;8.570;2023-02-28T07:31:12;10.68;;;5.22;;
23236;SDS011;11787;52.018;8.570;2023-02-28T07:33:39;8.35;;;4.63;;
23236;SDS011;11787;52.018;8.570;2023-02-28T07:36:09;8.25;;;4.50;;
23236;SDS011;11787;52.018;8.570;2023-02-28T07:38:40;7.60;;;4.57;;
23236;SDS011;11787;52.018;8.570;2023-02-28T07:41:07;5.88;;;4.38;;
23236;SDS011;11787;52.018;8.570;2023-02-28T07:43:33;9.10;;;5.22;;
23236;SDS011;11787;52.018;8.570;2023-02-28T07:46:07;11.05;;;6.28;;
23236;SDS011;11787;52.018;8.570;2023-02-28T07:48:34;10.68;;;6.30;;
23236;SDS011;11787;52.018;8.570;2023-02-28T07:50:59;9.82;;;6.28;;
23236;SDS011;11787;52.018;8.570;2023-02-28T07:53:26;9.05;;;6.70;;
23236;SDS011;11787;52.018;8.570;2023-02-28T07:55:55;16.98;;;8.63;;
23236;SDS011;11787;52.018;8.570;2023-02-28T07:58:26;7.90;;;5.57;;
23236;SDS011;11787;52.018;8.570;2023-02-28T08:00:52;13.68;;;8.25;;
23236;SDS011;11787;52.018;8.570;2023-02-28T08:03:18;12.80;;;7.38;;
23236;SDS011;11787;52.018;8.570;2023-02-28T08:05:45;15.65;;;7.80;;
23236;SDS011;11787;52.018;8.570;2023-02-28T08:08:11;13.25;;;7.65;;
23236;SDS011;11787;52.018;8.570;2023-02-28T08:10:37;17.92;;;9.27;;
23236;SDS011;11787;52.018;8.570;2023-02-28T08:13:03;11.50;;;7.75;;
23236;SDS011;11787;52.018;8.570;2023-02-28T08:15:28;12.23;;;7.32;;
23236;SDS011;11787;52.018;8.570;2023-02-28T08:17:54;11.23;;;6.97;;
23236;SDS011;11787;52.018;8.570;2023-02-28T08:20:21;10.68;;;6.93;;
23236;SDS011;11787;52.018;8.570;2023-02-28T08:22:47;12.38;;;6.90;;
23236;SDS011;11787;52.018;8.570;2023-02-28T08:25:13;10.88;;;6.63;;
23236;SDS011;11787;52.018;8.570;2023-02-28T08:27:38;10.98;;;6.75;;
23236;SDS011;11787;52.018;8.570;2023-02-28T08:30:04;9.20;;;6.00;;
23236;SDS011;11787;52.018;8.570;2023-02-28T08:32:31;12.23;;;6.82;;
23236;SDS011;11787;52.018;8.570;2023-02-28T08:34:58;8.85;;;5.60;;
23236;SDS011;11787;52.018;8.570;2023-02-28T08:37:24;11.75;;;9.02;;
23236;SDS011;11787;52.018;8.570;2023-02-28T08:39:50;9.75;;;5.60;;
23236;SDS011;11787;52.018;8.570;2023-02-28T08:42:15;7.70;;;5.63;;
23236;SDS011;11787;52.018;8.570;2023-02-28T08:44:41;6.93;;;5.00;;
23236;SDS011;11787;52.018;8.570;2023-02-28T08:47:07;7.40;;;5.13;;
23236;SDS011;11787;52.018;8.570;2023-02-28T08:49:33;6.47;;;4.85;;
23236;SDS011;11787;52.018;8.570;2023-02-28T08:51:58;7.13;;;5.03;;
23236;SDS011;11787;52.018;8.570;2023-02-28T08:54:24;7.57;;;5.18;;
23236;SDS011;11787;52.018;8.570;2023-02-28T08:56:50;6.72;;;4.20;;
23236;SDS011;11787;52.018;8.570;2023-02-28T08:59:15;8.07;;;4.63;;
23236;SDS011;11787;52.018;8.570;2023-02-28T09:01:41;6.43;;;4.65;;
23236;SDS011;11787;52.018;8.570;2023-02-28T09:04:08;8.63;;;4.30;;
23236;SDS011;11787;52.018;8.570;2023-02-28T09:06:35;7.40;;;5.03;;
23236;SDS011;11787;52.018;8.570;2023-02-28T09:09:01;8.05;;;4.10;;
23236;SDS011;11787;52.018;8.570;2023-02-28T09:11:29;6.43;;;3.22;;
23236;SDS011;11787;52.018;8.570;2023-02-28T09:13:55;10.35;;;6.00;;
23236;SDS011;11787;52.018;8.570;2023-02-28T09:16:20;8.02;;;5.15;;
23236;SDS011;11787;52.018;8.570;2023-02-28T09:18:46;19.42;;;10.55;;
23236;SDS011;11787;52.018;8.570;2023-02-28T09:21:13;21.48;;;10.10;;
23236;SDS011;11787;52.018;8.570;2023-02-28T09:23:41;11.73;;;6.80;;
23236;SDS011;11787;52.018;8.570;2023-02-28T09:26:11;5.97;;;3.70;;
23236;SDS011;11787;52.018;8.570;2023-02-28T09:28:42;5.40;;;3.67;;
23236;SDS011;11787;52.018;8.570;2023-02-28T09:31:14;7.18;;;3.78;;
23236;SDS011;11787;52.018;8.570;2023-02-28T09:33:42;71.78;;;23.05;;
23236;SDS011;11787;52.018;8.570;2023-02-28T09:36:07;83.93;;;30.80;;
23236;SDS011;11787;52.018;8.570;2023-02-28T09:38:33;73.30;;;27.85;;
23236;SDS011;11787;52.018;8.570;2023-02-28T09:41:01;57.83;;;29.05;;
23236;SDS011;11787;52.018;8.570;2023-02-28T09:43:31;16.45;;;9.23;;
23236;SDS011;11787;52.018;8.570;2023-02-28T09:48:53;10.38;;;8.27;;
23236;SDS011;11787;52.018;8.570;2023-02-28T09:51:29;4.85;;;3.20;;
23236;SDS011;11787;52.018;8.570;2023-02-28T09:54:04;8.75;;;2.92;;
23236;SDS011;11787;52.018;8.570;2023-02-28T09:56:32;6.78;;;3.40;;
23236;SDS011;11787;52.018;8.570;2023-02-28T09:59:09;5.22;;;3.08;;
23236;SDS011;11787;52.018;8.570;2023-02-28T10:10:00;5.28;;;2.85;;
23236;SDS011;11787;52.018;8.570;2023-02-28T10:12:29;4.22;;;2.53;;
23236;SDS011;11787;52.018;8.570;2023-02-28T10:14:57;4.70;;;2.72;;
23236;SDS011;11787;52.018;8.570;2023-02-28T10:17:26;7.97;;;2.67;;
23236;SDS011;11787;52.018;8.570;2023-02-28T10:25:27;5.10;;;2.13;;
23236;SDS011;11787;52.018;8.570;2023-02-28T10:27:57;3.55;;;1.60;;
23236;SDS011;11787;52.018;8.570;2023-02-28T10:30:30;3.47;;;1.83;;
23236;SDS011;11787;52.018;8.570;2023-02-28T10:32:56;2.10;;;1.38;;
23236;SDS011;11787;52.018;8.570;2023-02-28T10:35:23;3.58;;;2.15;;
23236;SDS011;11787;52.018;8.570;2023-02-28T10:37:54;2.80;;;1.50;;
23236;SDS011;11787;52.018;8.570;2023-02-28T10:43:11;4.93;;;1.70;;
23236;SDS011;11787;52.018;8.570;2023-02-28T10:45:39;4.70;;;1.50;;
23236;SDS011;11787;52.018;8.570;2023-02-28T10:56:00;3.30;;;1.40;;
23236;SDS011;11787;52.018;8.570;2023-02-28T10:58:54;3.65;;;1.40;;
23236;SDS011;11787;52.018;8.570;2023-02-28T11:01:16;2.38;;;1.38;;
23236;SDS011;11787;52.018;8.570;2023-02-28T11:03:42;2.00;;;1.17;;
23236;SDS011;11787;52.018;8.570;2023-02-28T11:06:10;3.08;;;1.30;;
23236;SDS011;11787;52.018;8.570;2023-02-28T11:08:47;3.47;;;1.45;;
23236;SDS011;11787;52.018;8.570;2023-02-28T11:11:25;1.73;;;1.00;;
23236;SDS011;11787;52.018;8.570;2023-02-28T11:13:53;9.88;;;4.63;;
23236;SDS011;11787;52.018;8.570;2023-02-28T11:16:21;3.97;;;1.95;;
23236;SDS011;11787;52.018;8.570;2023-02-28T11:18:56;1.77;;;1.20;;
23236;SDS011;11787;52.018;8.570;2023-02-28T11:21:27;3.35;;;1.25;;
23236;SDS011;11787;52.018;8.570;2023-02-28T11:23:58;2.47;;;1.50;;
23236;SDS011;11787;52.018;8.570;2023-02-28T11:26:35;2.50;;;0.90;;
23236;SDS011;11787;52.018;8.570;2023-02-28T11:29:08;2.22;;;1.10;;
23236;SDS011;11787;52.018;8.570;2023-02-28T11:31:36;2.45;;;1.50;;
23236;SDS011;11787;52.018;8.570;2023-02-28T11:34:07;4.90;;;1.30;;
23236;SDS011;11787;52.018;8.570;2023-02-28T11:36:53;2.97;;;1.02;;
23236;SDS011;11787;52.018;8.570;2023-02-28T11:39:21;1.25;;;1.00;;
23236;SDS011;11787;52.018;8.570;2023-02-28T11:58:52;2.00;;;1.42;;
23236;SDS011;11787;52.018;8.570;2023-02-28T12:06:30;3.92;;;1.48;;
23236;SDS011;11787;52.018;8.570;2023-02-28T12:36:21;6.95;;;3.55;;
23236;SDS011;11787;52.018;8.570;2023-02-28T12:38:51;3.10;;;1.50;;
23236;SDS011;11787;52.018;8.570;2023-02-28T12:42:05;3.10;;;1.58;;
23236;SDS011;11787;52.018;8.570;2023-02-28T12:44:14;3.38;;;1.60;;
23236;SDS011;11787;52.018;8.570;2023-02-28T12:46:47;3.45;;;1.42;;
23236;SDS011;11787;52.018;8.570;2023-02-28T12:49:16;3.92;;;1.88;;
23236;SDS011;11787;52.018;8.570;2023-02-28T12:51:42;2.42;;;1.30;;
23236;SDS011;11787;52.018;8.570;2023-02-28T12:59:43;2.00;;;1.40;;
23236;SDS011;11787;52.018;8.570;2023-02-28T13:02:27;3.33;;;1.38;;
23236;SDS011;11787;52.018;8.570;2023-02-28T13:05:29;2.97;;;1.70;;
23236;SDS011;11787;52.018;8.570;2023-02-28T13:11:37;5.35;;;1.60;;
23236;SDS011;11787;52.018;8.570;2023-02-28T13:14:14;2.92;;;1.85;;
23236;SDS011;11787;52.018;8.570;2023-02-28T13:19:32;5.78;;;2.00;;
23236;SDS011;11787;52.018;8.570;2023-02-28T13:22:01;6.60;;;2.75;;
23236;SDS011;11787;52.018;8.570;2023-02-28T13:24:38;3.75;;;2.10;;
23236;SDS011;11787;52.018;8.570;2023-02-28T13:29:31;3.60;;;2.10;;
23236;SDS011;11787;52.018;8.570;2023-02-28T13:34:31;3.33;;;1.60;;
23236;SDS011;11787;52.018;8.570;2023-02-28T13:47:33;4.75;;;1.70;;
23236;SDS011;11787;52.018;8.570;2023-02-28T13:52:52;3.20;;;2.00;;
23236;SDS011;11787;52.018;8.570;2023-02-28T13:55:28;4.30;;;2.00;;
23236;SDS011;11787;52.018;8.570;2023-02-28T14:08:52;7.38;;;1.70;;
23236;SDS011;11787;52.018;8.570;2023-02-28T14:11:29;4.63;;;2.10;;
23236;SDS011;11787;52.018;8.570;2023-02-28T14:13:57;4.15;;;2.05;;
23236;SDS011;11787;52.018;8.570;2023-02-28T14:16:23;3.47;;;1.80;;
23236;SDS011;11787;52.018;8.570;2023-02-28T14:29:35;2.92;;;1.50;;
23236;SDS011;11787;52.018;8.570;2023-02-28T14:34:52;2.55;;;2.00;;
23236;SDS011;11787;52.018;8.570;2023-02-28T14:37:28;2.70;;;1.73;;
23236;SDS011;11787;52.018;8.570;2023-02-28T14:39:56;3.72;;;2.40;;
23236;SDS011;11787;52.018;8.570;2023-02-28T14:42:46;5.03;;;2.00;;
23236;SDS011;11787;52.018;8.570;2023-02-28T14:45:19;2.65;;;1.73;;
23236;SDS011;11787;52.018;8.570;2023-02-28T14:47:46;5.32;;;1.85;;
23236;SDS011;11787;52.018;8.570;2023-02-28T14:50:22;4.15;;;2.08;;
23236;SDS011;11787;52.018;8.570;2023-02-28T14:52:59;3.80;;;2.28;;
23236;SDS011;11787;52.018;8.570;2023-02-28T14:55:35;3.40;;;1.98;;
23236;SDS011;11787;52.018;8.570;2023-02-28T14:58:02;5.82;;;1.85;;
23236;SDS011;11787;52.018;8.570;2023-02-28T15:00:34;3.65;;;1.63;;
23236;SDS011;11787;52.018;8.570;2023-02-28T15:03:17;4.05;;;1.90;;
23236;SDS011;11787;52.018;8.570;2023-02-28T15:05:55;5.40;;;2.20;;
23236;SDS011;11787;52.018;8.570;2023-02-28T15:08:37;3.72;;;2.10;;
23236;SDS011;11787;52.018;8.570;2023-02-28T15:11:11;3.55;;;1.70;;
23236;SDS011;11787;52.018;8.570;2023-02-28T15:13:48;2.33;;;1.67;;
23236;SDS011;11787;52.018;8.570;2023-02-28T15:21:51;2.88;;;1.85;;
23236;SDS011;11787;52.018;8.570;2023-02-28T15:26:57;2.92;;;1.90;;
23236;SDS011;11787;52.018;8.570;2023-02-28T15:29:25;2.10;;;1.70;;
23236;SDS011;11787;52.018;8.570;2023-02-28T15:34:26;3.03;;;1.90;;
23236;SDS011;11787;52.018;8.570;2023-02-28T15:36:58;4.40;;;2.40;;
23236;SDS011;11787;52.018;8.570;2023-02-28T15:39:25;3.67;;;2.22;;
23236;SDS011;11787;52.018;8.570;2023-02-28T15:41:52;3.85;;;1.98;;
23236;SDS011;11787;52.018;8.570;2023-02-28T15:44:35;3.00;;;2.27;;
23236;SDS011;11787;52.018;8.570;2023-02-28T15:47:05;4.88;;;1.90;;
23236;SDS011;11787;52.018;8.570;2023-02-28T15:49:39;4.82;;;2.28;;
23236;SDS011;11787;52.018;8.570;2023-02-28T15:52:26;3.65;;;2.00;;
23236;SDS011;11787;52.018;8.570;2023-02-28T15:55:18;3.72;;;2.22;;
23236;SDS011;11787;52.018;8.570;2023-02-28T15:57:50;3.40;;;2.00;;
23236;SDS011;11787;52.018;8.570;2023-02-28T16:00:20;3.58;;;2.00;;
23236;SDS011;11787;52.018;8.570;2023-02-28T16:02:47;2.70;;;1.98;;
23236;SDS011;11787;52.018;8.570;2023-02-28T16:05:29;5.78;;;2.35;;
23236;SDS011;11787;52.018;8.570;2023-02-28T16:08:13;3.80;;;2.00;;
23236;SDS011;11787;52.018;8.570;2023-02-28T16:10:40;4.00;;;2.22;;
23236;SDS011;11787;52.018;8.570;2023-02-28T16:13:06;2.90;;;2.08;;
23236;SDS011;11787;52.018;8.570;2023-02-28T16:15:37;4.95;;;2.17;;
23236;SDS011;11787;52.018;8.570;2023-02-28T16:18:07;3.28;;;2.22;;
23236;SDS011;11787;52.018;8.570;2023-02-28T16:20:36;4.38;;;2.33;;
23236;SDS011;11787;52.018;8.570;2023-02-28T16:23:01;6.05;;;2.63;;
23236;SDS011;11787;52.018;8.570;2023-02-28T16:25:34;3.80;;;2.10;;
23236;SDS011;11787;52.018;8.570;2023-02-28T16:28:01;4.85;;;1.77;;
23236;SDS011;11787;52.018;8.570;2023-02-28T16:30:28;3.97;;;2.20;;
23236;SDS011;11787;52.018;8.570;2023-02-28T16:32:58;4.72;;;2.30;;
23236;SDS011;11787;52.018;8.570;2023-02-28T16:35:24;3.70;;;2.25;;
23236;SDS011;11787;52.018;8.570;2023-02-28T16:37:50;5.55;;;1.85;;
23236;SDS011;11787;52.018;8.570;2023-02-28T16:40:18;6.53;;;2.40;;
23236;SDS011;11787;52.018;8.570;2023-02-28T16:42:50;4.47;;;2.17;;
23236;SDS011;11787;52.018;8.570;2023-02-28T16:45:19;4.05;;;2.20;;
23236;SDS011;11787;52.018;8.570;2023-02-28T16:47:47;3.00;;;2.00;;
23236;SDS011;11787;52.018;8.570;2023-02-28T16:50:17;4.22;;;2.10;;
23236;SDS011;11787;52.018;8.570;2023-02-28T16:52:44;3.05;;;2.00;;
23236;SDS011;11787;52.018;8.570;2023-02-28T16:55:10;3.05;;;1.83;;
23236;SDS011;11787;52.018;8.570;2023-02-28T16:57:36;8.55;;;5.28;;
23236;SDS011;11787;52.018;8.570;2023-02-28T17:00:03;9.02;;;5.60;;
23236;SDS011;11787;52.018;8.570;2023-02-28T17:02:29;3.60;;;2.47;;
23236;SDS011;11787;52.018;8.570;2023-02-28T17:04:55;6.55;;;4.47;;
23236;SDS011;11787;52.018;8.570;2023-02-28T17:07:20;5.88;;;4.07;;
23236;SDS011;11787;52.018;8.570;2023-02-28T17:09:46;9.95;;;6.88;;
23236;SDS011;11787;52.018;8.570;2023-02-28T17:12:12;7.30;;;5.38;;
23236;SDS011;11787;52.018;8.570;2023-02-28T17:14:38;6.47;;;3.70;;
23236;SDS011;11787;52.018;8.570;2023-02-28T17:17:04;8.95;;;2.58;;
23236;SDS011;11787;52.018;8.570;2023-02-28T17:19:30;4.18;;;2.40;;
23236;SDS011;11787;52.018;8.570;2023-02-28T17:21:56;4.20;;;2.83;;
23236;SDS011;11787;52.018;8.570;2023-02-28T17:24:22;5.68;;;2.60;;
23236;SDS011;11787;52.018;8.570;2023-02-28T17:26:47;3.85;;;2.50;;
23236;SDS011;11787;52.018;8.570;2023-02-28T17:29:23;3.45;;;2.33;;
23236;SDS011;11787;52.018;8.570;2023-02-28T17:31:49;3.60;;;2.30;;
23236;SDS011;11787;52.018;8.570;2023-02-28T17:34:14;3.60;;;2.17;;
23236;SDS011;11787;52.018;8.570;2023-02-28T17:36:44;3.67;;;2.45;;
23236;SDS011;11787;52.018;8.570;2023-02-28T17:39:12;6.18;;;2.42;;
23236;SDS011;11787;52.018;8.570;2023-02-28T17:41:39;4.38;;;2.55;;
23236;SDS011;11787;52.018;8.570;2023-02-28T17:44:06;4.18;;;2.28;;
23236;SDS011;11787;52.018;8.570;2023-02-28T17:46:32;7.53;;;2.65;;
23236;SDS011;11787;52.018;8.570;2023-02-28T17:48:58;3.42;;;2.28;;
23236;SDS011;11787;52.018;8.570;2023-02-28T17:51:24;6.43;;;3.92;;
23236;SDS011;11787;52.018;8.570;2023-02-28T17:53:51;4.22;;;2.60;;
23236;SDS011;11787;52.018;8.570;2023-02-28T17:56:18;4.68;;;2.80;;